createdAt,value
2023-05-14T00:00:02.250Z,97686.97
2023-05-14T00:02:29.930Z,97684.75
2023-05-14T00:04:58.806Z,97683.72
2023-05-14T00:07:30.745Z,97684.22
2023-05-14T00:09:58.448Z,97685.63
2023-05-14T00:12:26.347Z,97677.34
2023-05-14T00:14:54.088Z,97679.25
2023-05-14T00:17:21.573Z,97674.19
2023-05-14T00:19:49.122Z,97670.25
2023-05-14T00:22:18.002Z,97665.16
2023-05-14T00:24:45.654Z,97663.50
2023-05-14T00:27:13.103Z,97661.28
2023-05-14T00:29:41.144Z,97661.28
2023-05-14T00:32:09.273Z,97669.00
2023-05-14T00:34:36.845Z,97658.88
2023-05-14T00:37:04.355Z,97662.19
2023-05-14T00:39:33.198Z,97653.69
2023-05-14T00:42:00.824Z,97653.06
2023-05-14T00:44:28.343Z,97649.22
2023-05-14T00:46:56.071Z,97655.09
2023-05-14T00:49:24.258Z,97652.56
2023-05-14T00:51:51.899Z,97659.19
2023-05-14T00:54:20.784Z,97653.16
2023-05-14T00:56:49.703Z,97662.22
2023-05-14T00:59:17.394Z,97655.09
2023-05-14T01:01:45.005Z,97657.59
2023-05-14T01:04:12.771Z,97648.94
2023-05-14T01:06:51.956Z,97655.47
2023-05-14T01:09:24.018Z,97661.53
2023-05-14T01:11:56.786Z,97652.81
2023-05-14T01:14:29.280Z,97654.28
2023-05-14T01:16:57.698Z,97654.53
2023-05-14T01:19:31.024Z,97650.97
2023-05-14T01:21:59.981Z,97659.84
2023-05-14T01:24:27.560Z,97664.00
2023-05-14T01:27:13.306Z,97667.75
2023-05-14T01:29:43.811Z,97672.09
2023-05-14T01:32:11.801Z,97662.66
2023-05-14T01:34:40.954Z,97672.72
2023-05-14T01:37:12.437Z,97667.34
2023-05-14T01:39:40.683Z,97658.97
2023-05-14T01:42:08.760Z,97669.91
2023-05-14T01:44:36.541Z,97665.06
2023-05-14T01:47:04.478Z,97664.81
2023-05-14T01:49:32.557Z,97659.84
2023-05-14T01:52:00.364Z,97666.69
2023-05-14T01:54:29.191Z,97665.50
2023-05-14T01:56:56.669Z,97662.31
2023-05-14T01:59:24.359Z,97665.72
2023-05-14T02:01:51.884Z,97663.25
2023-05-14T02:04:20.850Z,97661.81
2023-05-14T02:06:48.389Z,97670.78
2023-05-14T02:09:16.048Z,97661.19
2023-05-14T02:11:44.921Z,97663.72
2023-05-14T02:14:12.414Z,97659.47
2023-05-14T02:16:39.921Z,97653.06
2023-05-14T02:19:07.542Z,97662.16
2023-05-14T02:21:35.070Z,97649.13
2023-05-14T02:24:02.622Z,97652.06
2023-05-14T02:26:30.097Z,97649.78
2023-05-14T02:28:59.275Z,97647.66
2023-05-14T02:31:26.794Z,97647.75
2023-05-14T02:33:54.326Z,97645.34
2023-05-14T02:36:21.827Z,97648.00
2023-05-14T02:38:49.318Z,97635.00
2023-05-14T02:41:16.813Z,97651.75
2023-05-14T02:43:44.298Z,97653.88
2023-05-14T02:46:13.410Z,97651.88
2023-05-14T02:48:41.052Z,97647.13
2023-05-14T02:51:09.359Z,97644.06
2023-05-14T02:53:36.878Z,97647.84
2023-05-14T02:56:05.057Z,97649.41
2023-05-14T02:58:32.723Z,97648.38
2023-05-14T03:01:00.367Z,97644.63
2023-05-14T03:03:30.508Z,97644.78
2023-05-14T03:05:58.534Z,97642.22
2023-05-14T03:08:26.012Z,97644.31
2023-05-14T03:10:53.580Z,97638.91
2023-05-14T03:13:21.271Z,97649.38
2023-05-14T03:15:49.083Z,97636.44
2023-05-14T03:18:16.661Z,97645.19
2023-05-14T03:20:45.476Z,97646.28
2023-05-14T03:23:13.504Z,97639.38
2023-05-14T03:25:41.043Z,97638.19
2023-05-14T03:28:08.796Z,97633.09
2023-05-14T03:30:36.434Z,97645.41
2023-05-14T03:33:04.270Z,97639.97
2023-05-14T03:35:31.848Z,97639.19
2023-05-14T03:38:00.782Z,97637.50
2023-05-14T03:40:28.587Z,97634.19
2023-05-14T03:42:56.150Z,97637.97
2023-05-14T03:45:24.074Z,97637.16
2023-05-14T03:47:51.692Z,97634.09
2023-05-14T03:50:19.406Z,97647.41
2023-05-14T03:52:46.966Z,97634.91
2023-05-14T03:55:15.824Z,97629.88
2023-05-14T03:57:43.616Z,97637.91
2023-05-14T04:00:13.173Z,97641.34
2023-05-14T04:02:46.667Z,97639.78
2023-05-14T04:05:14.218Z,97636.41
2023-05-14T04:07:41.732Z,97638.84
2023-05-14T04:10:10.271Z,97638.56
2023-05-14T04:12:39.390Z,97632.75
2023-05-14T04:15:08.285Z,97629.44
2023-05-14T04:17:36.134Z,97628.63
2023-05-14T04:20:04.349Z,97626.09
2023-05-14T04:22:32.030Z,97631.22
2023-05-14T04:24:59.537Z,97623.59
2023-05-14T04:27:27.044Z,97621.13
2023-05-14T04:29:55.934Z,97616.94
2023-05-14T04:32:23.477Z,97629.03
2023-05-14T04:34:51.005Z,97615.56
2023-05-14T04:37:18.490Z,97610.91
2023-05-14T04:39:46.001Z,97618.81
2023-05-14T04:42:13.533Z,97626.22
2023-05-14T04:44:41.033Z,97613.75
2023-05-14T04:47:09.855Z,97615.22
2023-05-14T04:49:37.314Z,97620.19
2023-05-14T04:52:05.449Z,97612.66
2023-05-14T04:54:33.083Z,97613.84
2023-05-14T04:57:03.162Z,97612.94
2023-05-14T04:59:30.812Z,97618.84
2023-05-14T05:01:58.533Z,97613.88
2023-05-14T05:04:27.378Z,97616.06
2023-05-14T05:06:54.843Z,97621.78
2023-05-14T05:09:22.460Z,97622.41
2023-05-14T05:11:49.961Z,97619.41
2023-05-14T05:14:17.627Z,97609.66
2023-05-14T05:16:45.407Z,97621.31
2023-05-14T05:19:12.976Z,97615.34
2023-05-14T05:21:41.815Z,97625.25
2023-05-14T05:24:09.484Z,97624.75
2023-05-14T05:26:37.155Z,97636.19
2023-05-14T05:29:04.794Z,97628.06
2023-05-14T05:31:32.845Z,97626.88
2023-05-14T05:34:01.050Z,97623.16
2023-05-14T05:36:28.647Z,97623.63
2023-05-14T05:38:57.480Z,97618.66
2023-05-14T05:41:24.949Z,97617.72
2023-05-14T05:43:52.450Z,97617.47
2023-05-14T05:46:20.064Z,97618.22
2023-05-14T05:48:47.579Z,97606.50
2023-05-14T05:51:15.231Z,97613.03
2023-05-14T05:53:42.741Z,97619.47
2023-05-14T05:56:11.588Z,97612.78
2023-05-14T05:58:39.529Z,97617.00
2023-05-14T06:01:07.481Z,97618.91
2023-05-14T06:03:35.398Z,97614.31
2023-05-14T06:06:02.971Z,97608.00
2023-05-14T06:08:30.577Z,97607.16
2023-05-14T06:10:58.186Z,97611.28
2023-05-14T06:13:27.015Z,97616.50
2023-05-14T06:15:54.514Z,97615.13
2023-05-14T06:18:22.021Z,97610.53
2023-05-14T06:20:49.546Z,97601.78
2023-05-14T06:23:17.123Z,97610.91
2023-05-14T06:25:44.635Z,97607.66
2023-05-14T06:28:12.240Z,97606.41
2023-05-14T06:30:41.042Z,97596.78
2023-05-14T06:33:08.587Z,97601.78
2023-05-14T06:35:37.039Z,97589.50
2023-05-14T06:38:04.620Z,97592.47
2023-05-14T06:40:32.189Z,97586.78
2023-05-14T06:43:00.015Z,97589.88
2023-05-14T06:45:27.723Z,97593.59
2023-05-14T06:47:56.695Z,97593.41
2023-05-14T06:50:24.416Z,97594.03
2023-05-14T06:52:52.186Z,97601.44
2023-05-14T06:55:20.014Z,97603.69
2023-05-14T06:57:47.520Z,97598.94
2023-05-14T07:00:16.338Z,97600.78
2023-05-14T07:02:43.880Z,97596.88
2023-05-14T07:05:12.773Z,97596.03
2023-05-14T07:07:40.276Z,97594.59
2023-05-14T07:10:09.153Z,97590.03
2023-05-14T07:12:36.682Z,97589.63
2023-05-14T07:15:04.658Z,97590.03
2023-05-14T07:17:32.193Z,97592.25
2023-05-14T07:19:59.699Z,97588.56
2023-05-14T07:22:28.483Z,97592.84
2023-05-14T07:24:55.971Z,97590.53
2023-05-14T07:27:23.492Z,97581.47
2023-05-14T07:29:51.236Z,97583.88
2023-05-14T07:32:18.756Z,97579.28
2023-05-14T07:34:46.290Z,97572.19
2023-05-14T07:37:13.796Z,97570.00
2023-05-14T07:39:43.152Z,97563.84
2023-05-14T07:42:10.677Z,97555.78
2023-05-14T07:44:38.212Z,97558.34
2023-05-14T07:47:07.460Z,97552.03
2023-05-14T07:49:35.286Z,97562.00
2023-05-14T07:52:02.920Z,97554.53
2023-05-14T07:54:30.456Z,97554.25
2023-05-14T07:56:59.299Z,97544.19
2023-05-14T07:59:26.802Z,97540.84
2023-05-14T08:01:54.420Z,97545.94
2023-05-14T08:04:23.378Z,97539.34
2023-05-14T08:06:51.042Z,97545.38
2023-05-14T08:09:18.570Z,97536.22
2023-05-14T08:11:46.046Z,97542.69
2023-05-14T08:14:14.819Z,97539.31
2023-05-14T08:16:42.435Z,97536.25
2023-05-14T08:19:10.013Z,97534.19
2023-05-14T08:21:37.571Z,97529.47
2023-05-14T08:24:05.654Z,97531.84
2023-05-14T08:26:33.156Z,97524.88
2023-05-14T08:29:00.654Z,97526.75
2023-05-14T08:31:29.541Z,97525.63
2023-05-14T08:33:57.078Z,97520.34
2023-05-14T08:36:24.570Z,97525.31
2023-05-14T08:38:52.039Z,97523.81
2023-05-14T08:41:19.856Z,97522.53
2023-05-14T08:43:58.273Z,97516.84
2023-05-14T08:46:26.344Z,97519.03
2023-05-14T08:48:59.026Z,97512.38
2023-05-14T08:51:27.612Z,97502.22
2023-05-14T08:53:55.664Z,97510.53
2023-05-14T08:56:23.791Z,97510.19
2023-05-14T08:58:51.296Z,97509.13
2023-05-14T09:01:19.898Z,97514.75
2023-05-14T09:03:47.972Z,97506.09
2023-05-14T09:06:17.298Z,97504.56
2023-05-14T09:08:44.976Z,97503.28
2023-05-14T09:11:12.846Z,97502.66
2023-05-14T09:13:41.031Z,97500.41
2023-05-14T09:16:08.741Z,97495.53
2023-05-14T09:18:37.236Z,97493.66
2023-05-14T09:21:05.526Z,97490.97
2023-05-14T09:23:34.661Z,97492.69
2023-05-14T09:26:05.858Z,97491.75
2023-05-14T09:28:33.353Z,97487.06
2023-05-14T09:31:00.870Z,97489.06
2023-05-14T09:33:29.144Z,97487.09
2023-05-14T09:36:00.285Z,97490.97
2023-05-14T09:38:31.521Z,97483.81
2023-05-14T09:41:01.173Z,97483.78
2023-05-14T09:43:28.681Z,97475.63
2023-05-14T09:45:56.193Z,97466.81
2023-05-14T09:48:24.357Z,97465.09
2023-05-14T09:50:52.541Z,97470.94
2023-05-14T09:53:20.271Z,97464.50
2023-05-14T09:55:49.244Z,97458.88
2023-05-14T09:58:18.107Z,97452.44
2023-05-14T10:00:47.261Z,97459.44
2023-05-14T10:03:18.846Z,97459.19
2023-05-14T10:05:50.230Z,97464.06
2023-05-14T10:08:21.587Z,97458.03
2023-05-14T10:10:50.458Z,97451.59
2023-05-14T10:13:23.562Z,97450.31
2023-05-14T10:15:54.614Z,97450.31
2023-05-14T10:18:24.372Z,97451.38
2023-05-14T10:20:58.471Z,97450.06
2023-05-14T10:23:28.347Z,97449.50
2023-05-14T10:25:55.932Z,97450.00
2023-05-14T10:28:25.005Z,97438.63
2023-05-14T10:30:52.546Z,97429.13
2023-05-14T10:33:20.062Z,97429.25
2023-05-14T10:35:58.112Z,97430.78
2023-05-14T10:38:28.042Z,97422.22
2023-05-14T10:40:57.767Z,97422.22
2023-05-14T10:43:28.522Z,97425.16
2023-05-14T10:45:56.481Z,97420.47
2023-05-14T10:48:24.656Z,97412.88
2023-05-14T10:50:52.881Z,97410.38
2023-05-14T10:53:21.105Z,97416.81
2023-05-14T10:55:48.644Z,97410.63
2023-05-14T10:58:16.403Z,97420.34
2023-05-14T11:00:48.975Z,97413.19
2023-05-14T11:03:16.990Z,97408.16
2023-05-14T11:05:45.203Z,97397.97
2023-05-14T11:08:13.326Z,97396.94
2023-05-14T11:10:40.864Z,97395.19
2023-05-14T11:13:08.392Z,97393.44
2023-05-14T11:15:36.122Z,97394.94
2023-05-14T11:18:05.178Z,97385.72
2023-05-14T11:20:33.106Z,97386.03
2023-05-14T11:23:00.639Z,97389.91
2023-05-14T11:25:28.259Z,97389.78
2023-05-14T11:27:58.657Z,97390.97
2023-05-14T11:30:26.293Z,97375.19
2023-05-14T11:32:54.300Z,97385.59
2023-05-14T11:35:23.731Z,97377.16
2023-05-14T11:37:53.168Z,97378.34
2023-05-14T11:40:21.444Z,97374.91
2023-05-14T11:42:52.038Z,97374.13
2023-05-14T11:45:26.226Z,97368.25
2023-05-14T11:47:54.527Z,97364.97
2023-05-14T11:50:23.872Z,97364.28
2023-05-14T11:52:51.658Z,97364.63
2023-05-14T11:55:19.171Z,97363.81
2023-05-14T11:57:46.759Z,97368.16
2023-05-14T12:00:21.379Z,97363.69
2023-05-14T12:02:49.640Z,97363.22
2023-05-14T12:05:17.406Z,97356.06
2023-05-14T12:07:46.938Z,97356.56
2023-05-14T12:10:14.542Z,97360.19
2023-05-14T12:12:48.955Z,97359.34
2023-05-14T12:15:17.282Z,97356.78
2023-05-14T12:17:50.885Z,97351.53
2023-05-14T12:20:18.538Z,97357.16
2023-05-14T12:22:47.395Z,97358.78
2023-05-14T12:25:14.966Z,97344.50
2023-05-14T12:27:45.596Z,97351.53
2023-05-14T12:30:34.686Z,97355.88
2023-05-14T12:33:01.484Z,97345.66
2023-05-14T12:35:29.016Z,97350.34
2023-05-14T12:37:57.918Z,97357.63
2023-05-14T12:40:25.625Z,97356.44
2023-05-14T12:42:54.420Z,97350.59
2023-05-14T12:45:23.813Z,97344.38
2023-05-14T12:47:51.406Z,97345.34
2023-05-14T12:50:19.051Z,97343.47
2023-05-14T12:52:46.639Z,97341.22
2023-05-14T12:55:15.465Z,97345.34
2023-05-14T12:57:42.947Z,97345.56
2023-05-14T13:00:21.264Z,97350.13
2023-05-14T13:02:48.874Z,97347.44
2023-05-14T13:05:16.400Z,97347.78
2023-05-14T13:07:43.946Z,97354.31
2023-05-14T13:10:12.094Z,97352.47
2023-05-14T13:12:40.962Z,97351.88
2023-05-14T13:15:09.658Z,97358.06
2023-05-14T13:17:37.297Z,97350.72
2023-05-14T13:20:06.124Z,97346.84
2023-05-14T13:22:33.624Z,97354.56
2023-05-14T13:25:01.132Z,97356.88
2023-05-14T13:27:28.609Z,97351.19
2023-05-14T13:29:57.679Z,97346.13
2023-05-14T13:32:26.303Z,97338.31
2023-05-14T13:34:53.804Z,97346.47
2023-05-14T13:37:21.531Z,97340.63
2023-05-14T13:39:51.318Z,97331.28
2023-05-14T13:42:19.067Z,97332.78
2023-05-14T13:44:46.673Z,97324.25
2023-05-14T13:47:15.489Z,97321.19
2023-05-14T13:49:43.668Z,97319.91
2023-05-14T13:52:11.202Z,97309.16
2023-05-14T13:54:38.911Z,97311.38
2023-05-14T13:57:06.586Z,97313.94
2023-05-14T13:59:34.092Z,97314.78
2023-05-14T14:02:01.748Z,97309.88
2023-05-14T14:04:30.709Z,97309.38
2023-05-14T14:06:58.668Z,97305.66
2023-05-14T14:09:26.331Z,97305.06
2023-05-14T14:11:53.855Z,97306.47
2023-05-14T14:14:21.453Z,97305.31
2023-05-14T14:16:48.928Z,97303.88
2023-05-14T14:19:17.795Z,97304.50
2023-05-14T14:21:47.483Z,97307.00
2023-05-14T14:24:14.990Z,97307.97
2023-05-14T14:26:42.506Z,97304.56
2023-05-14T14:29:10.054Z,97304.88
2023-05-14T14:31:37.679Z,97301.25
2023-05-14T14:34:05.485Z,97289.81
2023-05-14T14:36:33.017Z,97295.19
2023-05-14T14:39:01.888Z,97296.69
2023-05-14T14:41:29.563Z,97291.41
2023-05-14T14:43:57.359Z,97295.59
2023-05-14T14:46:24.883Z,97286.56
2023-05-14T14:48:52.727Z,97292.47
2023-05-14T14:51:20.262Z,97285.69
2023-05-14T14:53:47.794Z,97284.03
2023-05-14T14:56:16.651Z,97282.50
2023-05-14T14:58:45.389Z,97275.41
2023-05-14T15:01:13.066Z,97280.91
2023-05-14T15:03:41.070Z,97269.91
2023-05-14T15:06:09.078Z,97272.63
2023-05-14T15:08:36.583Z,97270.88
2023-05-14T15:11:04.116Z,97270.53
2023-05-14T15:13:33.055Z,97268.69
2023-05-14T15:16:00.822Z,97270.44
2023-05-14T15:18:28.404Z,97272.66
2023-05-14T15:20:57.221Z,97270.56
2023-05-14T15:23:24.740Z,97259.91
2023-05-14T15:25:52.246Z,97260.72
2023-05-14T15:28:23.083Z,97264.22
2023-05-14T15:30:55.982Z,97276.41
2023-05-14T15:33:23.886Z,97279.09
2023-05-14T15:35:51.656Z,97268.34
2023-05-14T15:38:19.184Z,97274.53
2023-05-14T15:40:46.679Z,97274.91
2023-05-14T15:43:14.276Z,97275.13
2023-05-14T15:45:41.816Z,97270.78
2023-05-14T15:48:10.746Z,97274.06
2023-05-14T15:50:38.690Z,97277.19
2023-05-14T15:53:06.277Z,97268.66
2023-05-14T15:55:33.798Z,97269.25
2023-05-14T15:58:01.307Z,97265.75
2023-05-14T16:00:28.775Z,97259.63
2023-05-14T16:02:56.344Z,97264.19
2023-05-14T16:05:25.430Z,97255.44
2023-05-14T16:07:52.996Z,97261.41
2023-05-14T16:10:21.258Z,97263.88
2023-05-14T16:12:48.881Z,97273.22
2023-05-14T16:15:16.479Z,97268.19
2023-05-14T16:17:44.146Z,97259.63
2023-05-14T16:20:13.113Z,97266.66
2023-05-14T16:22:42.209Z,97269.13
2023-05-14T16:25:09.964Z,97266.78
2023-05-14T16:27:37.579Z,97267.34
2023-05-14T16:30:05.961Z,97264.66
2023-05-14T16:32:33.746Z,97262.22
2023-05-14T16:35:02.704Z,97256.72
2023-05-14T16:37:30.277Z,97254.72
2023-05-14T16:39:59.332Z,97260.22
2023-05-14T16:42:27.500Z,97256.94
2023-05-14T16:44:55.286Z,97246.84
2023-05-14T16:47:22.954Z,97238.91
2023-05-14T16:49:50.468Z,97228.13
2023-05-14T16:52:17.974Z,97228.81
2023-05-14T16:54:45.437Z,97229.56
2023-05-14T16:57:14.491Z,97233.56
2023-05-14T16:59:41.975Z,97236.13
2023-05-14T17:02:10.006Z,97234.34
2023-05-14T17:04:38.751Z,97243.94
2023-05-14T17:07:06.454Z,97238.19
2023-05-14T17:09:33.957Z,97236.53
2023-05-14T17:12:01.458Z,97234.44
2023-05-14T17:14:30.303Z,97241.16
2023-05-14T17:16:57.861Z,97228.75
2023-05-14T17:19:25.332Z,97229.66
2023-05-14T17:21:52.813Z,97237.41
2023-05-14T17:24:20.338Z,97245.22
2023-05-14T17:26:47.869Z,97242.78
2023-05-14T17:29:15.422Z,97240.63
2023-05-14T17:31:44.250Z,97241.59
2023-05-14T17:34:11.788Z,97242.41
2023-05-14T17:36:39.548Z,97241.97
2023-05-14T17:39:07.061Z,97233.31
2023-05-14T17:41:34.572Z,97234.94
2023-05-14T17:44:02.079Z,97226.66
2023-05-14T17:46:29.656Z,97230.75
2023-05-14T17:48:58.642Z,97231.22
2023-05-14T17:51:26.274Z,97234.13
2023-05-14T17:53:53.874Z,97234.56
2023-05-14T17:56:21.436Z,97228.50
2023-05-14T17:58:50.041Z,97226.38
2023-05-14T18:01:17.654Z,97238.81
2023-05-14T18:03:45.211Z,97238.56
2023-05-14T18:06:15.002Z,97230.72
2023-05-14T18:08:42.605Z,97227.09
2023-05-14T18:11:10.244Z,97225.34
2023-05-14T18:13:38.105Z,97233.28
2023-05-14T18:16:06.550Z,97236.03
2023-05-14T18:18:34.192Z,97236.41
2023-05-14T18:21:01.798Z,97234.25
2023-05-14T18:23:31.391Z,97239.59
2023-05-14T18:25:58.895Z,97242.28
2023-05-14T18:28:26.438Z,97237.53
2023-05-14T18:30:53.915Z,97231.41
2023-05-14T18:33:21.456Z,97231.13
2023-05-14T18:35:48.995Z,97235.91
2023-05-14T18:38:19.241Z,97230.84
2023-05-14T18:40:49.345Z,97232.69
2023-05-14T18:43:18.415Z,97231.22
2023-05-14T18:45:47.308Z,97233.66
2023-05-14T18:48:14.846Z,97231.88
2023-05-14T18:50:42.341Z,97230.22
2023-05-14T18:53:11.906Z,97227.19
2023-05-14T18:55:42.339Z,97228.16
2023-05-14T18:58:12.008Z,97230.75
2023-05-14T19:00:39.635Z,97234.44
2023-05-14T19:03:10.338Z,97234.22
2023-05-14T19:05:37.959Z,97230.63
2023-05-14T19:08:05.875Z,97231.28
2023-05-14T19:10:34.638Z,97219.00
2023-05-14T19:13:02.225Z,97223.66
2023-05-14T19:15:31.064Z,97221.06
2023-05-14T19:17:59.906Z,97220.97
2023-05-14T19:20:27.585Z,97228.28
2023-05-14T19:22:55.082Z,97220.53
2023-05-14T19:25:22.567Z,97221.75
2023-05-14T19:27:51.045Z,97222.00
2023-05-14T19:30:18.624Z,97228.59
2023-05-14T19:32:47.482Z,97224.31
2023-05-14T19:35:15.075Z,97230.47
2023-05-14T19:37:42.638Z,97233.41
2023-05-14T19:40:10.690Z,97221.72
2023-05-14T19:42:38.203Z,97232.66
2023-05-14T19:45:06.723Z,97233.06
2023-05-14T19:47:34.250Z,97228.75
2023-05-14T19:50:04.056Z,97226.53
2023-05-14T19:52:31.548Z,97223.63
2023-05-14T19:54:59.164Z,97231.88
2023-05-14T19:57:26.964Z,97227.78
2023-05-14T19:59:54.528Z,97228.00
2023-05-14T20:02:22.694Z,97222.41
2023-05-14T20:04:50.380Z,97222.63
2023-05-14T20:07:20.132Z,97236.31
2023-05-14T20:09:47.729Z,97228.31
2023-05-14T20:12:16.545Z,97222.09
2023-05-14T20:14:44.105Z,97218.03
2023-05-14T20:17:11.677Z,97211.59
2023-05-14T20:19:39.216Z,97215.16
2023-05-14T20:22:06.891Z,97217.13
2023-05-14T20:24:35.753Z,97208.16
2023-05-14T20:27:03.319Z,97206.16
2023-05-14T20:29:30.953Z,97205.31
2023-05-14T20:31:58.433Z,97214.66
2023-05-14T20:34:25.986Z,97212.81
2023-05-14T20:36:53.526Z,97217.97
2023-05-14T20:39:21.098Z,97216.66
2023-05-14T20:41:49.950Z,97205.09
2023-05-14T20:44:18.434Z,97205.34
2023-05-14T20:46:48.095Z,97202.09
2023-05-14T20:49:15.853Z,97193.28
2023-05-14T20:51:43.410Z,97201.84
2023-05-14T20:54:10.934Z,97188.88
2023-05-14T20:56:38.460Z,97193.06
2023-05-14T20:59:07.283Z,97197.22
2023-05-14T21:01:34.867Z,97190.72
2023-05-14T21:04:02.540Z,97188.56
2023-05-14T21:06:30.192Z,97186.78
2023-05-14T21:08:57.692Z,97183.34
2023-05-14T21:11:25.577Z,97182.16
2023-05-14T21:13:53.342Z,97181.19
2023-05-14T21:16:22.263Z,97182.47
2023-05-14T21:18:49.836Z,97182.00
2023-05-14T21:21:17.355Z,97182.13
2023-05-14T21:23:44.846Z,97183.25
2023-05-14T21:26:12.393Z,97185.59
2023-05-14T21:28:39.938Z,97188.00
2023-05-14T21:31:07.444Z,97192.31
2023-05-14T21:33:36.236Z,97191.41
2023-05-14T21:36:03.942Z,97188.59
2023-05-14T21:38:32.456Z,97185.16
2023-05-14T21:41:00.254Z,97191.53
2023-05-14T21:43:27.878Z,97184.16
2023-05-14T21:45:55.401Z,97192.41
2023-05-14T21:48:23.114Z,97183.09
2023-05-14T21:50:52.083Z,97181.66
2023-05-14T21:53:19.603Z,97181.75
2023-05-14T21:55:47.211Z,97177.94
2023-05-14T21:58:14.718Z,97179.84
2023-05-14T22:00:42.204Z,97175.78
2023-05-14T22:03:09.750Z,97180.34
2023-05-14T22:05:37.380Z,97177.69
2023-05-14T22:08:07.239Z,97170.13
2023-05-14T22:10:35.715Z,97176.69
2023-05-14T22:13:03.217Z,97177.28
2023-05-14T22:15:30.726Z,97170.13
2023-05-14T22:17:58.295Z,97162.31
2023-05-14T22:20:25.873Z,97160.88
2023-05-14T22:22:53.453Z,97166.63
2023-05-14T22:25:22.553Z,97153.09
2023-05-14T22:27:50.310Z,97154.13
2023-05-14T22:30:17.830Z,97159.31
2023-05-14T22:32:45.406Z,97154.38
2023-05-14T22:35:12.910Z,97155.63
2023-05-14T22:37:40.402Z,97151.53
2023-05-14T22:40:11.219Z,97143.50
2023-05-14T22:42:40.099Z,97147.81
2023-05-14T22:45:08.810Z,97141.06
2023-05-14T22:47:36.401Z,97136.94
2023-05-14T22:50:04.138Z,97143.31
2023-05-14T22:52:31.632Z,97134.69
2023-05-14T22:55:00.684Z,97136.94
2023-05-14T22:57:28.236Z,97129.69
2023-05-14T22:59:57.118Z,97124.19
2023-05-14T23:02:24.636Z,97126.25
2023-05-14T23:04:52.507Z,97125.03
2023-05-14T23:07:20.180Z,97123.56
2023-05-14T23:09:47.730Z,97123.97
2023-05-14T23:12:15.182Z,97120.72
2023-05-14T23:14:42.693Z,97117.00
2023-05-14T23:17:11.482Z,97116.78
2023-05-14T23:19:39.113Z,97119.44
2023-05-14T23:22:06.765Z,97106.88
2023-05-14T23:24:34.229Z,97106.31
2023-05-14T23:27:01.756Z,97107.31
2023-05-14T23:29:29.254Z,97098.94
2023-05-14T23:31:56.754Z,97094.25
2023-05-14T23:34:25.632Z,97092.38
2023-05-14T23:36:53.251Z,97090.34
2023-05-14T23:39:22.296Z,97090.78
2023-05-14T23:41:49.760Z,97087.91
2023-05-14T23:44:17.286Z,97087.03
2023-05-14T23:46:44.968Z,97087.22
2023-05-14T23:49:12.993Z,97084.16
2023-05-14T23:51:41.909Z,97082.53
2023-05-14T23:54:09.417Z,97086.03
2023-05-14T23:56:36.949Z,97085.41
2023-05-14T23:59:04.862Z,97082.56
